Terminal Aerodrome Forecast
Issued by NWS

Home | Current Version | Previous Version | Text Only | Print | Product List | Glossary On
Versions: 1 2 3 4 5 6 7 8 9 10 11 12 13
000
FTUS44 KTSA 261737
TAFRVS
TAF
KRVS 261737Z 2618/2718 02009KT P6SM VCSH SCT008 SCT015 OVC035
      TEMPO 2618/2620 BKN008 BKN012
     FM270600 03006KT 6SM -SHRA SCT008 OVC012
      TEMPO 2708/2712 3SM -SHRA BR BKN007
     FM271200 02005KT P6SM VCSH BKN007 BKN012
     FM271600 02008KT P6SM SCT015 BKN025=

USA.gov is the U.S. government's official web portal to all federal, state and local government web resources and services.